sensor_id;sensor_type;location;lat;lon;timestamp;pressure;altitude;pressure_sealevel;temperature;humidity
51715;BME280;39115;59.332;18.034;2023-02-28T00:00:22;102207.09;;;2.79;65.51
51715;BME280;39115;59.332;18.034;2023-02-28T00:02:43;102211.50;;;2.79;65.78
51715;BME280;39115;59.332;18.034;2023-02-28T00:05:05;102210.63;;;2.78;65.69
51715;BME280;39115;59.332;18.034;2023-02-28T00:07:27;102204.53;;;2.76;65.68
51715;BME280;39115;59.332;18.034;2023-02-28T00:09:48;102201.13;;;2.74;65.97
51715;BME280;39115;59.332;18.034;2023-02-28T00:12:08;102203.75;;;2.74;65.91
51715;BME280;39115;59.332;18.034;2023-02-28T00:14:30;102207.28;;;2.73;65.73
51715;BME280;39115;59.332;18.034;2023-02-28T00:16:50;102207.28;;;2.73;65.94
51715;BME280;39115;59.332;18.034;2023-02-28T00:19:11;102216.97;;;2.71;66.31
51715;BME280;39115;59.332;18.034;2023-02-28T00:21:33;102221.34;;;2.72;65.96
51715;BME280;39115;59.332;18.034;2023-02-28T00:23:53;102215.22;;;2.72;65.72
51715;BME280;39115;59.332;18.034;2023-02-28T00:26:14;102212.63;;;2.70;65.88
51715;BME280;39115;59.332;18.034;2023-02-28T00:28:35;102224.03;;;2.71;65.96
51715;BME280;39115;59.332;18.034;2023-02-28T00:30:55;102226.66;;;2.71;65.80
51715;BME280;39115;59.332;18.034;2023-02-28T00:33:17;102222.31;;;2.69;65.90
51715;BME280;39115;59.332;18.034;2023-02-28T00:35:38;102220.56;;;2.68;65.65
51715;BME280;39115;59.332;18.034;2023-02-28T00:37:58;102219.72;;;2.68;65.99
51715;BME280;39115;59.332;18.034;2023-02-28T00:40:19;102213.59;;;2.67;65.95
51715;BME280;39115;59.332;18.034;2023-02-28T00:42:39;102208.44;;;2.64;66.05
51715;BME280;39115;59.332;18.034;2023-02-28T00:45:00;102212.00;;;2.62;65.87
51715;BME280;39115;59.332;18.034;2023-02-28T00:47:21;102215.53;;;2.61;66.10
51715;BME280;39115;59.332;18.034;2023-02-28T00:49:42;102206.81;;;2.60;66.08
51715;BME280;39115;59.332;18.034;2023-02-28T00:52:03;102213.03;;;2.58;66.44
51715;BME280;39115;59.332;18.034;2023-02-28T00:54:23;102212.19;;;2.56;66.48
51715;BME280;39115;59.332;18.034;2023-02-28T00:56:44;102216.63;;;2.55;66.12
51715;BME280;39115;59.332;18.034;2023-02-28T00:59:06;102208.75;;;2.53;66.21
51715;BME280;39115;59.332;18.034;2023-02-28T01:01:26;102204.44;;;2.52;66.13
51715;BME280;39115;59.332;18.034;2023-02-28T01:03:47;102193.91;;;2.52;66.36
51715;BME280;39115;59.332;18.034;2023-02-28T01:06:08;102195.66;;;2.52;66.49
51715;BME280;39115;59.332;18.034;2023-02-28T01:08:28;102198.34;;;2.50;66.41
51715;BME280;39115;59.332;18.034;2023-02-28T01:10:49;102188.69;;;2.51;66.21
51715;BME280;39115;59.332;18.034;2023-02-28T01:13:10;102194.91;;;2.48;66.33
51715;BME280;39115;59.332;18.034;2023-02-28T01:15:31;102200.97;;;2.50;66.35
51715;BME280;39115;59.332;18.034;2023-02-28T01:17:52;102204.50;;;2.49;66.08
51715;BME280;39115;59.332;18.034;2023-02-28T01:20:13;102208.88;;;2.49;66.33
51715;BME280;39115;59.332;18.034;2023-02-28T01:22:34;102201.06;;;2.47;66.30
51715;BME280;39115;59.332;18.034;2023-02-28T01:24:55;102205.47;;;2.47;66.57
51715;BME280;39115;59.332;18.034;2023-02-28T01:27:15;102206.38;;;2.46;66.32
51715;BME280;39115;59.332;18.034;2023-02-28T01:29:36;102206.44;;;2.44;66.80
51715;BME280;39115;59.332;18.034;2023-02-28T01:31:56;102204.72;;;2.42;66.67
51715;BME280;39115;59.332;18.034;2023-02-28T01:34:19;102197.84;;;2.37;66.62
51715;BME280;39115;59.332;18.034;2023-02-28T01:36:40;102199.66;;;2.35;66.55
51715;BME280;39115;59.332;18.034;2023-02-28T01:39:00;102200.56;;;2.34;66.50
51715;BME280;39115;59.332;18.034;2023-02-28T01:41:27;102207.66;;;2.32;66.75
51715;BME280;39115;59.332;18.034;2023-02-28T01:46:09;102205.16;;;2.28;66.81
51715;BME280;39115;59.332;18.034;2023-02-28T01:48:36;102214.84;;;2.26;66.95
51715;BME280;39115;59.332;18.034;2023-02-28T01:51:03;102214.03;;;2.24;66.86
51715;BME280;39115;59.332;18.034;2023-02-28T01:53:31;102215.78;;;2.23;67.00
51715;BME280;39115;59.332;18.034;2023-02-28T01:55:53;102218.50;;;2.20;66.95
51715;BME280;39115;59.332;18.034;2023-02-28T01:58:15;102216.75;;;2.20;66.98
51715;BME280;39115;59.332;18.034;2023-02-28T02:00:36;102206.28;;;2.19;66.85
51715;BME280;39115;59.332;18.034;2023-02-28T02:03:00;102202.84;;;2.17;67.05
51715;BME280;39115;59.332;18.034;2023-02-28T02:05:24;102204.66;;;2.15;67.09
51715;BME280;39115;59.332;18.034;2023-02-28T02:07:47;102208.19;;;2.14;67.08
51715;BME280;39115;59.332;18.034;2023-02-28T02:10:21;102212.59;;;2.12;67.22
51715;BME280;39115;59.332;18.034;2023-02-28T02:18:28;102196.19;;;2.03;67.05
51715;BME280;39115;59.332;18.034;2023-02-28T02:25:50;102197.28;;;1.96;67.65
51715;BME280;39115;59.332;18.034;2023-02-28T02:36:30;102201.88;;;1.89;67.60
51715;BME280;39115;59.332;18.034;2023-02-28T02:39:02;102193.16;;;1.87;67.60
51715;BME280;39115;59.332;18.034;2023-02-28T02:44:49;102202.00;;;1.85;67.41
51715;BME280;39115;59.332;18.034;2023-02-28T02:46:44;102201.13;;;1.84;67.70
51715;BME280;39115;59.332;18.034;2023-02-28T02:49:09;102208.16;;;1.84;67.51
51715;BME280;39115;59.332;18.034;2023-02-28T02:51:32;102202.91;;;1.84;67.58
51715;BME280;39115;59.332;18.034;2023-02-28T02:53:59;102206.47;;;1.81;67.72
51715;BME280;39115;59.332;18.034;2023-02-28T02:56:24;102203.88;;;1.80;67.71
51715;BME280;39115;59.332;18.034;2023-02-28T02:58:49;102196.91;;;1.79;67.83
51715;BME280;39115;59.332;18.034;2023-02-28T03:01:16;102206.59;;;1.77;67.79
51715;BME280;39115;59.332;18.034;2023-02-28T03:03:47;102199.66;;;1.74;68.20
51715;BME280;39115;59.332;18.034;2023-02-28T03:06:08;102200.59;;;1.71;67.92
51715;BME280;39115;59.332;18.034;2023-02-28T03:08:31;102199.78;;;1.69;67.95
51715;BME280;39115;59.332;18.034;2023-02-28T03:11:01;102204.22;;;1.67;68.17
51715;BME280;39115;59.332;18.034;2023-02-28T03:26:46;102195.75;;;1.56;67.99
51715;BME280;39115;59.332;18.034;2023-02-28T03:31:40;102200.16;;;1.55;68.63
51715;BME280;39115;59.332;18.034;2023-02-28T03:34:08;102200.16;;;1.55;68.38
51715;BME280;39115;59.332;18.034;2023-02-28T03:36:44;102185.34;;;1.53;68.40
51715;BME280;39115;59.332;18.034;2023-02-28T03:39:07;102195.03;;;1.51;68.39
51715;BME280;39115;59.332;18.034;2023-02-28T03:41:42;102198.53;;;1.50;68.42
51715;BME280;39115;59.332;18.034;2023-02-28T03:44:07;102198.59;;;1.48;68.58
51715;BME280;39115;59.332;18.034;2023-02-28T03:46:31;102195.97;;;1.48;68.51
51715;BME280;39115;59.332;18.034;2023-02-28T03:49:18;102205.63;;;1.48;68.34
51715;BME280;39115;59.332;18.034;2023-02-28T03:51:41;102203.88;;;1.47;68.69
51715;BME280;39115;59.332;18.034;2023-02-28T03:54:10;102201.25;;;1.47;68.66
51715;BME280;39115;59.332;18.034;2023-02-28T03:56:39;102203.91;;;1.45;68.54
51715;BME280;39115;59.332;18.034;2023-02-28T03:59:06;102191.72;;;1.42;68.89
51715;BME280;39115;59.332;18.034;2023-02-28T04:01:36;102186.53;;;1.41;68.38
51715;BME280;39115;59.332;18.034;2023-02-28T04:03:58;102184.84;;;1.38;68.67
51715;BME280;39115;59.332;18.034;2023-02-28T04:06:21;102181.41;;;1.36;68.83
51715;BME280;39115;59.332;18.034;2023-02-28T04:08:42;102185.81;;;1.34;68.95
51715;BME280;39115;59.332;18.034;2023-02-28T04:13:48;102176.34;;;1.29;68.86
51715;BME280;39115;59.332;18.034;2023-02-28T04:16:09;102173.75;;;1.27;68.71
51715;BME280;39115;59.332;18.034;2023-02-28T04:18:32;102172.91;;;1.26;68.74
51715;BME280;39115;59.332;18.034;2023-02-28T04:20:53;102173.88;;;1.24;69.00
51715;BME280;39115;59.332;18.034;2023-02-28T04:23:13;102180.84;;;1.23;69.15
51715;BME280;39115;59.332;18.034;2023-02-28T04:25:34;102179.13;;;1.22;68.97
51715;BME280;39115;59.332;18.034;2023-02-28T04:27:54;102188.81;;;1.20;69.03
51715;BME280;39115;59.332;18.034;2023-02-28T04:30:15;102182.69;;;1.20;69.18
51715;BME280;39115;59.332;18.034;2023-02-28T04:32:36;102185.38;;;1.18;68.84
51715;BME280;39115;59.332;18.034;2023-02-28T04:34:56;102179.28;;;1.16;69.19
51715;BME280;39115;59.332;18.034;2023-02-28T04:37:17;102167.97;;;1.14;69.40
51715;BME280;39115;59.332;18.034;2023-02-28T04:39:37;102166.25;;;1.13;69.30
51715;BME280;39115;59.332;18.034;2023-02-28T04:41:58;102168.06;;;1.11;69.38
51715;BME280;39115;59.332;18.034;2023-02-28T04:44:18;102175.09;;;1.09;69.44
51715;BME280;39115;59.332;18.034;2023-02-28T04:46:41;102175.16;;;1.07;69.46
51715;BME280;39115;59.332;18.034;2023-02-28T04:49:01;102179.50;;;1.07;69.52
51715;BME280;39115;59.332;18.034;2023-02-28T04:51:22;102177.78;;;1.06;69.45
51715;BME280;39115;59.332;18.034;2023-02-28T04:53:43;102179.56;;;1.05;69.50
51715;BME280;39115;59.332;18.034;2023-02-28T04:56:04;102190.91;;;1.06;69.57
51715;BME280;39115;59.332;18.034;2023-02-28T04:58:25;102185.69;;;1.04;69.64
51715;BME280;39115;59.332;18.034;2023-02-28T05:00:46;102184.84;;;1.04;69.35
51715;BME280;39115;59.332;18.034;2023-02-28T05:03:09;102194.47;;;1.03;69.76
51715;BME280;39115;59.332;18.034;2023-02-28T05:05:30;102194.44;;;1.05;69.34
51715;BME280;39115;59.332;18.034;2023-02-28T05:07:50;102190.94;;;1.04;69.42
51715;BME280;39115;59.332;18.034;2023-02-28T05:10:11;102193.56;;;1.04;69.87
51715;BME280;39115;59.332;18.034;2023-02-28T05:12:32;102188.31;;;1.04;69.68
51715;BME280;39115;59.332;18.034;2023-02-28T05:14:52;102195.34;;;1.04;69.64
51715;BME280;39115;59.332;18.034;2023-02-28T05:17:13;102203.22;;;1.02;69.58
51715;BME280;39115;59.332;18.034;2023-02-28T05:19:33;102200.66;;;1.01;69.91
51715;BME280;39115;59.332;18.034;2023-02-28T05:21:54;102201.53;;;1.00;69.49
51715;BME280;39115;59.332;18.034;2023-02-28T05:24:15;102205.06;;;0.99;69.70
51715;BME280;39115;59.332;18.034;2023-02-28T05:26:42;102209.50;;;0.97;69.90
51715;BME280;39115;59.332;18.034;2023-02-28T05:29:03;102196.41;;;0.95;69.92
51715;BME280;39115;59.332;18.034;2023-02-28T05:31:23;102188.53;;;0.95;69.61
51715;BME280;39115;59.332;18.034;2023-02-28T05:33:44;102205.16;;;0.96;69.99
51715;BME280;39115;59.332;18.034;2023-02-28T05:36:05;102212.13;;;0.97;69.76
51715;BME280;39115;59.332;18.034;2023-02-28T05:38:26;102204.25;;;0.97;69.99
51715;BME280;39115;59.332;18.034;2023-02-28T05:40:47;102204.25;;;0.97;70.09
51715;BME280;39115;59.332;18.034;2023-02-28T05:43:10;102199.81;;;0.99;69.90
51715;BME280;39115;59.332;18.034;2023-02-28T05:45:30;102212.03;;;1.00;70.18
51715;BME280;39115;59.332;18.034;2023-02-28T05:47:55;102212.94;;;0.99;69.91
51715;BME280;39115;59.332;18.034;2023-02-28T05:50:15;102210.31;;;0.99;70.03
51715;BME280;39115;59.332;18.034;2023-02-28T05:52:36;102207.72;;;0.97;69.94
51715;BME280;39115;59.332;18.034;2023-02-28T05:54:57;102211.19;;;0.98;69.93
51715;BME280;39115;59.332;18.034;2023-02-28T05:57:18;102207.78;;;0.96;69.92
51715;BME280;39115;59.332;18.034;2023-02-28T05:59:38;102215.59;;;0.97;69.89
51715;BME280;39115;59.332;18.034;2023-02-28T06:02:00;102222.63;;;0.97;69.94
51715;BME280;39115;59.332;18.034;2023-02-28T06:04:20;102218.22;;;0.97;69.95
51715;BME280;39115;59.332;18.034;2023-02-28T06:06:41;102228.72;;;0.97;69.71
51715;BME280;39115;59.332;18.034;2023-02-28T06:09:02;102235.69;;;0.98;69.93
51715;BME280;39115;59.332;18.034;2023-02-28T06:11:23;102225.19;;;0.98;69.95
51715;BME280;39115;59.332;18.034;2023-02-28T06:13:47;102228.66;;;0.99;69.84
51715;BME280;39115;59.332;18.034;2023-02-28T06:16:10;102224.25;;;1.01;70.03
51715;BME280;39115;59.332;18.034;2023-02-28T06:18:31;102229.44;;;1.02;70.38
51715;BME280;39115;59.332;18.034;2023-02-28T06:20:54;102232.00;;;1.05;70.20
51715;BME280;39115;59.332;18.034;2023-02-28T06:23:15;102228.50;;;1.06;70.19
51715;BME280;39115;59.332;18.034;2023-02-28T06:25:36;102233.69;;;1.08;69.83
51715;BME280;39115;59.332;18.034;2023-02-28T06:27:56;102234.56;;;1.08;69.85
51715;BME280;39115;59.332;18.034;2023-02-28T06:30:17;102238.91;;;1.09;70.13
51715;BME280;39115;59.332;18.034;2023-02-28T06:32:37;102236.25;;;1.11;69.87
51715;BME280;39115;59.332;18.034;2023-02-28T06:34:58;102237.06;;;1.13;70.04
51715;BME280;39115;59.332;18.034;2023-02-28T06:37:18;102227.41;;;1.15;69.87
51715;BME280;39115;59.332;18.034;2023-02-28T06:39:39;102227.28;;;1.20;70.23
51715;BME280;39115;59.332;18.034;2023-02-28T06:42:00;102222.81;;;1.23;70.24
51715;BME280;39115;59.332;18.034;2023-02-28T06:44:21;102234.94;;;1.29;70.11
51715;BME280;39115;59.332;18.034;2023-02-28T06:46:43;102240.06;;;1.34;70.03
51715;BME280;39115;59.332;18.034;2023-02-28T06:49:03;102230.31;;;1.39;69.99
51715;BME280;39115;59.332;18.034;2023-02-28T06:51:25;102231.06;;;1.44;69.85
51715;BME280;39115;59.332;18.034;2023-02-28T06:53:47;102236.16;;;1.50;69.66
51715;BME280;39115;59.332;18.034;2023-02-28T06:56:10;102245.59;;;1.57;69.79
51715;BME280;39115;59.332;18.034;2023-02-28T06:58:31;102236.72;;;1.63;69.86
51715;BME280;39115;59.332;18.034;2023-02-28T07:00:52;102228.66;;;1.69;69.54
51715;BME280;39115;59.332;18.034;2023-02-28T07:03:13;102236.44;;;1.72;69.58
51715;BME280;39115;59.332;18.034;2023-02-28T07:05:36;102237.16;;;1.79;69.47
51715;BME280;39115;59.332;18.034;2023-02-28T07:07:57;102244.91;;;1.84;69.47
51715;BME280;39115;59.332;18.034;2023-02-28T07:10:18;102254.41;;;1.89;69.61
51715;BME280;39115;59.332;18.034;2023-02-28T07:12:39;102255.13;;;1.95;69.28
51715;BME280;39115;59.332;18.034;2023-02-28T07:14:59;102246.28;;;1.97;69.53
51715;BME280;39115;59.332;18.034;2023-02-28T07:17:20;102243.47;;;2.05;69.19
51715;BME280;39115;59.332;18.034;2023-02-28T07:19:40;102249.44;;;2.10;69.24
51715;BME280;39115;59.332;18.034;2023-02-28T07:22:01;102248.44;;;2.14;69.19
51715;BME280;39115;59.332;18.034;2023-02-28T07:24:22;102249.19;;;2.19;68.95
51715;BME280;39115;59.332;18.034;2023-02-28T07:26:45;102248.16;;;2.25;68.63
51715;BME280;39115;59.332;18.034;2023-02-28T07:29:06;102241.03;;;2.29;68.76
51715;BME280;39115;59.332;18.034;2023-02-28T07:31:27;102243.50;;;2.33;68.87
51715;BME280;39115;59.332;18.034;2023-02-28T07:33:48;102243.38;;;2.38;68.53
51715;BME280;39115;59.332;18.034;2023-02-28T07:36:14;102239.78;;;2.42;68.79
51715;BME280;39115;59.332;18.034;2023-02-28T07:38:36;102242.28;;;2.47;68.37
51715;BME280;39115;59.332;18.034;2023-02-28T07:40:57;102243.03;;;2.50;68.71
51715;BME280;39115;59.332;18.034;2023-02-28T07:43:18;102242.00;;;2.56;68.51
51715;BME280;39115;59.332;18.034;2023-02-28T07:45:38;102239.25;;;2.59;68.50
51715;BME280;39115;59.332;18.034;2023-02-28T07:47:58;102244.38;;;2.64;68.11
51715;BME280;39115;59.332;18.034;2023-02-28T07:50:19;102242.47;;;2.69;68.24
51715;BME280;39115;59.332;18.034;2023-02-28T07:52:40;102225.75;;;2.72;68.12
51715;BME280;39115;59.332;18.034;2023-02-28T07:55:01;102229.03;;;2.78;68.22
51715;BME280;39115;59.332;18.034;2023-02-28T07:57:21;102228.03;;;2.82;67.97
51715;BME280;39115;59.332;18.034;2023-02-28T07:59:42;102230.41;;;2.90;67.83
51715;BME280;39115;59.332;18.034;2023-02-28T08:02:02;102231.09;;;2.97;67.74
51715;BME280;39115;59.332;18.034;2023-02-28T08:04:23;102228.16;;;3.06;67.59
51715;BME280;39115;59.332;18.034;2023-02-28T08:06:44;102234.97;;;3.13;67.67
51715;BME280;39115;59.332;18.034;2023-02-28T08:09:04;102226.84;;;3.20;67.24
51715;BME280;39115;59.332;18.034;2023-02-28T08:11:25;102220.47;;;3.27;67.16
51715;BME280;39115;59.332;18.034;2023-02-28T08:13:46;102219.28;;;3.36;67.10
51715;BME280;39115;59.332;18.034;2023-02-28T08:16:06;102226.88;;;3.45;66.84
51715;BME280;39115;59.332;18.034;2023-02-28T08:18:27;102223.09;;;3.54;66.63
51715;BME280;39115;59.332;18.034;2023-02-28T08:20:48;102222.81;;;3.61;66.66
51715;BME280;39115;59.332;18.034;2023-02-28T08:23:08;102215.56;;;3.68;66.71
51715;BME280;39115;59.332;18.034;2023-02-28T08:25:29;102224.97;;;3.75;66.28
51715;BME280;39115;59.332;18.034;2023-02-28T08:27:51;102225.59;;;3.82;66.53
51715;BME280;39115;59.332;18.034;2023-02-28T08:30:13;102228.94;;;3.87;65.95
51715;BME280;39115;59.332;18.034;2023-02-28T08:32:34;102228.78;;;3.92;65.74
51715;BME280;39115;59.332;18.034;2023-02-28T08:34:55;102230.22;;;4.01;65.75
51715;BME280;39115;59.332;18.034;2023-02-28T08:37:15;102235.25;;;4.07;65.91
51715;BME280;39115;59.332;18.034;2023-02-28T08:39:36;102224.44;;;4.15;65.66
51715;BME280;39115;59.332;18.034;2023-02-28T08:41:58;102229.47;;;4.21;65.62
51715;BME280;39115;59.332;18.034;2023-02-28T08:44:19;102213.50;;;4.25;65.78
51715;BME280;39115;59.332;18.034;2023-02-28T08:46:39;102223.13;;;4.26;65.16
51715;BME280;39115;59.332;18.034;2023-02-28T08:49:00;102221.28;;;4.28;65.52
51715;BME280;39115;59.332;18.034;2023-02-28T08:51:22;102208.06;;;4.30;64.92
51715;BME280;39115;59.332;18.034;2023-02-28T08:53:46;102204.50;;;4.31;65.16
51715;BME280;39115;59.332;18.034;2023-02-28T08:56:13;102206.09;;;4.35;64.86
51715;BME280;39115;59.332;18.034;2023-02-28T08:58:34;102208.63;;;4.38;64.79
51715;BME280;39115;59.332;18.034;2023-02-28T09:00:55;102210.22;;;4.42;65.06
51715;BME280;39115;59.332;18.034;2023-02-28T09:03:16;102206.41;;;4.50;64.66
51715;BME280;39115;59.332;18.034;2023-02-28T09:05:37;102203.25;;;4.64;64.60
51715;BME280;39115;59.332;18.034;2023-02-28T09:07:57;102197.28;;;4.81;64.19
51715;BME280;39115;59.332;18.034;2023-02-28T09:10:18;102189.66;;;4.95;64.12
51715;BME280;39115;59.332;18.034;2023-02-28T09:12:38;102190.03;;;5.08;63.47
51715;BME280;39115;59.332;18.034;2023-02-28T09:14:59;102201.84;;;5.20;63.14
51715;BME280;39115;59.332;18.034;2023-02-28T09:17:20;102192.63;;;5.30;63.11
51715;BME280;39115;59.332;18.034;2023-02-28T09:19:40;102181.72;;;5.38;63.13
51715;BME280;39115;59.332;18.034;2023-02-28T09:22:01;102185.09;;;5.42;62.86
51715;BME280;39115;59.332;18.034;2023-02-28T09:24:21;102181.47;;;5.44;63.14
51715;BME280;39115;59.332;18.034;2023-02-28T09:26:42;102169.66;;;5.53;62.96
51715;BME280;39115;59.332;18.034;2023-02-28T09:29:03;102178.03;;;5.63;62.44
51715;BME280;39115;59.332;18.034;2023-02-28T09:31:26;102171.69;;;5.67;62.34
51715;BME280;39115;59.332;18.034;2023-02-28T09:33:51;102176.50;;;5.78;62.04
51715;BME280;39115;59.332;18.034;2023-02-28T09:36:12;102174.50;;;5.83;61.81
51715;BME280;39115;59.332;18.034;2023-02-28T09:38:33;102176.81;;;5.91;62.24
51715;BME280;39115;59.332;18.034;2023-02-28T09:40:57;102164.97;;;5.99;62.03
51715;BME280;39115;59.332;18.034;2023-02-28T09:43:21;102173.63;;;6.03;61.44
51715;BME280;39115;59.332;18.034;2023-02-28T09:45:48;102168.78;;;6.13;61.54
51715;BME280;39115;59.332;18.034;2023-02-28T09:48:13;102175.34;;;6.23;61.20
51715;BME280;39115;59.332;18.034;2023-02-28T09:50:42;102170.69;;;6.28;61.61
51715;BME280;39115;59.332;18.034;2023-02-28T09:53:15;102162.47;;;6.35;61.57
51715;BME280;39115;59.332;18.034;2023-02-28T09:55:43;102156.66;;;6.45;60.70
51715;BME280;39115;59.332;18.034;2023-02-28T09:58:15;102159.09;;;6.50;60.59
51715;BME280;39115;59.332;18.034;2023-02-28T10:00:40;102159.81;;;6.54;60.72
51715;BME280;39115;59.332;18.034;2023-02-28T10:03:14;102159.66;;;6.57;60.51
51715;BME280;39115;59.332;18.034;2023-02-28T10:05:52;102152.34;;;6.62;60.24
51715;BME280;39115;59.332;18.034;2023-02-28T10:08:18;102162.88;;;6.63;60.19
51715;BME280;39115;59.332;18.034;2023-02-28T10:10:50;102166.25;;;6.67;59.98
51715;BME280;39115;59.332;18.034;2023-02-28T10:16:15;102176.53;;;6.73;60.40
51715;BME280;39115;59.332;18.034;2023-02-28T10:18:46;102178.06;;;6.77;59.82
51715;BME280;39115;59.332;18.034;2023-02-28T10:21:20;102177.09;;;6.80;59.67
51715;BME280;39115;59.332;18.034;2023-02-28T10:23:41;102186.50;;;6.86;59.69
51715;BME280;39115;59.332;18.034;2023-02-28T10:26:12;102191.56;;;6.90;59.71
51715;BME280;39115;59.332;18.034;2023-02-28T10:28:33;102194.88;;;6.95;59.72
51715;BME280;39115;59.332;18.034;2023-02-28T10:30:55;102192.84;;;7.01;59.15
51715;BME280;39115;59.332;18.034;2023-02-28T10:33:30;102199.84;;;7.02;59.40
51715;BME280;39115;59.332;18.034;2023-02-28T10:35:52;102189.56;;;6.95;59.18
51715;BME280;39115;59.332;18.034;2023-02-28T10:38:17;102194.22;;;6.90;59.07
51715;BME280;39115;59.332;18.034;2023-02-28T10:40:38;102195.09;;;6.91;59.21
51715;BME280;39115;59.332;18.034;2023-02-28T10:43:17;102194.22;;;6.90;59.11
51715;BME280;39115;59.332;18.034;2023-02-28T10:45:39;102181.84;;;6.91;58.68
51715;BME280;39115;59.332;18.034;2023-02-28T10:56:15;102182.84;;;7.06;58.67
51715;BME280;39115;59.332;18.034;2023-02-28T10:59:08;102181.56;;;7.15;58.58
51715;BME280;39115;59.332;18.034;2023-02-28T11:01:46;102177.81;;;7.19;58.40
51715;BME280;39115;59.332;18.034;2023-02-28T11:04:19;102181.94;;;7.24;58.24
51715;BME280;39115;59.332;18.034;2023-02-28T11:06:39;102185.22;;;7.30;57.88
51715;BME280;39115;59.332;18.034;2023-02-28T11:09:06;102185.84;;;7.35;57.98
51715;BME280;39115;59.332;18.034;2023-02-28T11:11:46;102202.50;;;7.37;58.03
51715;BME280;39115;59.332;18.034;2023-02-28T11:14:19;102187.47;;;7.37;58.12
51715;BME280;39115;59.332;18.034;2023-02-28T11:16:41;102186.38;;;7.41;57.84
51715;BME280;39115;59.332;18.034;2023-02-28T11:19:02;102194.94;;;7.47;57.56
51715;BME280;39115;59.332;18.034;2023-02-28T11:21:30;102191.28;;;7.49;57.40
51715;BME280;39115;59.332;18.034;2023-02-28T11:24:22;102176.16;;;7.51;57.46
51715;BME280;39115;59.332;18.034;2023-02-28T11:26:46;102179.34;;;7.58;57.14
51715;BME280;39115;59.332;18.034;2023-02-28T11:29:18;102184.25;;;7.66;57.05
51715;BME280;39115;59.332;18.034;2023-02-28T11:31:39;102186.59;;;7.72;57.06
51715;BME280;39115;59.332;18.034;2023-02-28T11:34:00;102187.97;;;7.79;56.72
51715;BME280;39115;59.332;18.034;2023-02-28T11:38:45;102188.41;;;7.87;56.68
51715;BME280;39115;59.332;18.034;2023-02-28T11:44:09;102174.50;;;8.00;56.66
51715;BME280;39115;59.332;18.034;2023-02-28T11:46:44;102166.19;;;8.06;56.29
51715;BME280;39115;59.332;18.034;2023-02-28T11:49:35;102175.81;;;8.09;56.63
51715;BME280;39115;59.332;18.034;2023-02-28T11:52:53;102174.84;;;8.10;56.66
51715;BME280;39115;59.332;18.034;2023-02-28T12:02:50;102142.16;;;8.09;56.20
51715;BME280;39115;59.332;18.034;2023-02-28T12:05:23;102141.47;;;8.05;56.17
51715;BME280;39115;59.332;18.034;2023-02-28T12:08:15;102137.13;;;8.04;56.50
51715;BME280;39115;59.332;18.034;2023-02-28T12:13:25;102142.31;;;8.06;56.39
51715;BME280;39115;59.332;18.034;2023-02-28T12:21:37;102134.97;;;8.27;55.67
51715;BME280;39115;59.332;18.034;2023-02-28T12:24:36;102137.38;;;8.32;55.68
51715;BME280;39115;59.332;18.034;2023-02-28T12:27:02;102136.97;;;8.39;55.33
51715;BME280;39115;59.332;18.034;2023-02-28T12:29:32;102134.03;;;8.44;55.68
51715;BME280;39115;59.332;18.034;2023-02-28T12:32:11;102135.50;;;8.50;55.22
51715;BME280;39115;59.332;18.034;2023-02-28T12:34:39;102131.66;;;8.56;55.57
51715;BME280;39115;59.332;18.034;2023-02-28T12:37:06;102124.53;;;8.56;55.37
51715;BME280;39115;59.332;18.034;2023-02-28T12:39:46;102127.97;;;8.58;55.37
51715;BME280;39115;59.332;18.034;2023-02-28T12:42:30;102120.78;;;8.60;55.42
51715;BME280;39115;59.332;18.034;2023-02-28T12:45:05;102120.53;;;8.65;55.18
51715;BME280;39115;59.332;18.034;2023-02-28T12:47:29;102125.56;;;8.69;55.09
51715;BME280;39115;59.332;18.034;2023-02-28T12:50:00;102125.38;;;8.73;54.49
51715;BME280;39115;59.332;18.034;2023-02-28T12:52:34;102127.00;;;8.75;54.57
51715;BME280;39115;59.332;18.034;2023-02-28T12:55:09;102134.94;;;8.75;54.94
51715;BME280;39115;59.332;18.034;2023-02-28T13:00:14;102131.63;;;8.72;54.92
51715;BME280;39115;59.332;18.034;2023-02-28T13:05:46;102137.69;;;8.74;54.78
51715;BME280;39115;59.332;18.034;2023-02-28T13:08:32;102132.41;;;8.74;54.96
51715;BME280;39115;59.332;18.034;2023-02-28T13:10:58;102145.41;;;8.78;54.18
51715;BME280;39115;59.332;18.034;2023-02-28T13:13:21;102129.31;;;8.81;54.46
51715;BME280;39115;59.332;18.034;2023-02-28T13:16:06;102126.38;;;8.86;54.43
51715;BME280;39115;59.332;18.034;2023-02-28T13:20:56;102130.47;;;8.92;54.12
51715;BME280;39115;59.332;18.034;2023-02-28T13:26:16;102130.78;;;9.01;53.92
51715;BME280;39115;59.332;18.034;2023-02-28T13:31:09;102129.66;;;9.06;53.85
51715;BME280;39115;59.332;18.034;2023-02-28T13:33:35;102122.53;;;9.06;53.50
51715;BME280;39115;59.332;18.034;2023-02-28T13:44:14;102125.59;;;9.14;53.47
51715;BME280;39115;59.332;18.034;2023-02-28T13:51:45;102136.97;;;9.16;52.84
51715;BME280;39115;59.332;18.034;2023-02-28T13:59:26;102125.00;;;9.09;53.16
51715;BME280;39115;59.332;18.034;2023-02-28T14:07:09;102131.53;;;9.04;53.31
51715;BME280;39115;59.332;18.034;2023-02-28T14:09:46;102134.28;;;9.02;53.09
51715;BME280;39115;59.332;18.034;2023-02-28T14:15:44;102134.41;;;9.00;53.72
51715;BME280;39115;59.332;18.034;2023-02-28T14:18:22;102134.47;;;8.99;53.47
51715;BME280;39115;59.332;18.034;2023-02-28T14:20:45;102132.69;;;8.99;53.35
51715;BME280;39115;59.332;18.034;2023-02-28T14:26:03;102143.09;;;9.02;53.06
51715;BME280;39115;59.332;18.034;2023-02-28T14:28:54;102139.44;;;9.05;53.26
51715;BME280;39115;59.332;18.034;2023-02-28T14:31:42;102127.66;;;9.09;53.25
51715;BME280;39115;59.332;18.034;2023-02-28T14:36:35;102114.28;;;9.11;52.91